sensor_id;sensor_type;location;lat;lon;timestamp;temperature;humidity
29281;DHT22;25048;49.590;11.026;2022-09-14T00:01:09;16.50;99.90
29281;DHT22;25048;49.590;11.026;2022-09-14T00:03:37;16.50;99.90
29281;DHT22;25048;49.590;11.026;2022-09-14T00:06:07;16.50;99.90
29281;DHT22;25048;49.590;11.026;2022-09-14T00:08:35;16.50;99.90
29281;DHT22;25048;49.590;11.026;2022-09-14T00:11:09;16.50;99.90
29281;DHT22;25048;49.590;11.026;2022-09-14T00:13:38;16.40;99.90
29281;DHT22;25048;49.590;11.026;2022-09-14T00:16:14;16.40;99.90
29281;DHT22;25048;49.590;11.026;2022-09-14T00:18:37;16.40;99.90
29281;DHT22;25048;49.590;11.026;2022-09-14T00:21:06;16.40;99.90
29281;DHT22;25048;49.590;11.026;2022-09-14T00:23:35;16.40;99.90
29281;DHT22;25048;49.590;11.026;2022-09-14T00:26:05;16.40;99.90
29281;DHT22;25048;49.590;11.026;2022-09-14T00:28:37;16.40;99.90
29281;DHT22;25048;49.590;11.026;2022-09-14T00:31:05;16.40;99.90
29281;DHT22;25048;49.590;11.026;2022-09-14T00:33:33;16.40;99.90
29281;DHT22;25048;49.590;11.026;2022-09-14T00:36:08;16.40;99.90
29281;DHT22;25048;49.590;11.026;2022-09-14T00:38:31;16.40;99.90
29281;DHT22;25048;49.590;11.026;2022-09-14T00:40:59;16.40;99.90
29281;DHT22;25048;49.590;11.026;2022-09-14T00:43:27;16.40;99.90
29281;DHT22;25048;49.590;11.026;2022-09-14T00:45:55;16.40;99.90
29281;DHT22;25048;49.590;11.026;2022-09-14T00:48:24;16.40;99.90
29281;DHT22;25048;49.590;11.026;2022-09-14T00:50:52;16.40;99.90
29281;DHT22;25048;49.590;11.026;2022-09-14T00:53:20;16.40;99.90
29281;DHT22;25048;49.590;11.026;2022-09-14T00:55:48;16.40;99.90
29281;DHT22;25048;49.590;11.026;2022-09-14T00:58:18;16.40;99.90
29281;DHT22;25048;49.590;11.026;2022-09-14T01:00:45;16.40;99.90
29281;DHT22;25048;49.590;11.026;2022-09-14T01:03:13;16.40;99.90
29281;DHT22;25048;49.590;11.026;2022-09-14T01:11:22;16.50;99.90
29281;DHT22;25048;49.590;11.026;2022-09-14T01:19:14;16.40;99.90
29281;DHT22;25048;49.590;11.026;2022-09-14T01:21:43;16.40;99.90
29281;DHT22;25048;49.590;11.026;2022-09-14T01:24:27;16.40;99.90
29281;DHT22;25048;49.590;11.026;2022-09-14T01:29:43;16.40;99.90
29281;DHT22;25048;49.590;11.026;2022-09-14T01:32:33;16.40;99.90
29281;DHT22;25048;49.590;11.026;2022-09-14T01:35:27;16.40;99.90
29281;DHT22;25048;49.590;11.026;2022-09-14T01:38:03;16.40;99.90
29281;DHT22;25048;49.590;11.026;2022-09-14T01:40:47;16.40;99.90
29281;DHT22;25048;49.590;11.026;2022-09-14T01:43:20;16.30;99.90
29281;DHT22;25048;49.590;11.026;2022-09-14T01:45:50;16.30;99.90
29281;DHT22;25048;49.590;11.026;2022-09-14T01:48:21;16.30;99.90
29281;DHT22;25048;49.590;11.026;2022-09-14T01:50:51;16.30;99.90
29281;DHT22;25048;49.590;11.026;2022-09-14T01:53:37;16.30;99.90
29281;DHT22;25048;49.590;11.026;2022-09-14T01:59:13;16.20;99.90
29281;DHT22;25048;49.590;11.026;2022-09-14T02:01:53;16.20;99.90
29281;DHT22;25048;49.590;11.026;2022-09-14T02:04:21;16.20;99.90
29281;DHT22;25048;49.590;11.026;2022-09-14T02:06:47;16.20;99.90
29281;DHT22;25048;49.590;11.026;2022-09-14T02:09:18;16.20;99.90
29281;DHT22;25048;49.590;11.026;2022-09-14T02:11:46;16.20;99.90
29281;DHT22;25048;49.590;11.026;2022-09-14T02:14:14;16.10;99.90
29281;DHT22;25048;49.590;11.026;2022-09-14T02:16:42;16.10;99.90
29281;DHT22;25048;49.590;11.026;2022-09-14T02:19:13;16.10;99.90
29281;DHT22;25048;49.590;11.026;2022-09-14T02:21:40;16.10;99.90
29281;DHT22;25048;49.590;11.026;2022-09-14T02:24:09;16.10;99.90
29281;DHT22;25048;49.590;11.026;2022-09-14T02:26:38;16.10;99.90
29281;DHT22;25048;49.590;11.026;2022-09-14T02:29:06;16.10;99.90
29281;DHT22;25048;49.590;11.026;2022-09-14T02:34:29;16.10;99.90
29281;DHT22;25048;49.590;11.026;2022-09-14T02:37:15;16.10;99.90
29281;DHT22;25048;49.590;11.026;2022-09-14T02:45:31;16.20;99.90
29281;DHT22;25048;49.590;11.026;2022-09-14T02:53:27;16.20;99.90
29281;DHT22;25048;49.590;11.026;2022-09-14T02:56:01;16.20;99.90
29281;DHT22;25048;49.590;11.026;2022-09-14T02:58:24;16.20;99.90
29281;DHT22;25048;49.590;11.026;2022-09-14T03:00:53;16.20;99.90
29281;DHT22;25048;49.590;11.026;2022-09-14T03:03:21;16.20;99.90
29281;DHT22;25048;49.590;11.026;2022-09-14T03:05:48;16.20;99.90
29281;DHT22;25048;49.590;11.026;2022-09-14T03:08:16;16.20;99.90
29281;DHT22;25048;49.590;11.026;2022-09-14T03:10:44;16.20;99.90
29281;DHT22;25048;49.590;11.026;2022-09-14T03:13:11;16.20;99.90
29281;DHT22;25048;49.590;11.026;2022-09-14T03:15:39;16.20;99.90
29281;DHT22;25048;49.590;11.026;2022-09-14T03:18:07;16.20;99.90
29281;DHT22;25048;49.590;11.026;2022-09-14T03:20:35;16.20;99.90
29281;DHT22;25048;49.590;11.026;2022-09-14T03:23:04;16.20;99.90
29281;DHT22;25048;49.590;11.026;2022-09-14T03:25:38;16.10;99.90
29281;DHT22;25048;49.590;11.026;2022-09-14T03:28:07;16.20;99.90
29281;DHT22;25048;49.590;11.026;2022-09-14T03:30:35;16.10;99.90
29281;DHT22;25048;49.590;11.026;2022-09-14T03:33:02;16.20;99.90
29281;DHT22;25048;49.590;11.026;2022-09-14T03:35:30;16.10;99.90
29281;DHT22;25048;49.590;11.026;2022-09-14T03:37:58;16.10;99.90
29281;DHT22;25048;49.590;11.026;2022-09-14T03:40:28;16.10;99.90
29281;DHT22;25048;49.590;11.026;2022-09-14T03:42:55;16.10;99.90
29281;DHT22;25048;49.590;11.026;2022-09-14T03:45:23;16.10;99.90
29281;DHT22;25048;49.590;11.026;2022-09-14T03:47:51;16.10;99.90
29281;DHT22;25048;49.590;11.026;2022-09-14T03:50:18;16.10;99.90
29281;DHT22;25048;49.590;11.026;2022-09-14T03:52:46;16.10;99.90
29281;DHT22;25048;49.590;11.026;2022-09-14T03:55:14;16.10;99.90
29281;DHT22;25048;49.590;11.026;2022-09-14T03:57:41;16.10;99.90
29281;DHT22;25048;49.590;11.026;2022-09-14T04:00:10;16.00;99.90
29281;DHT22;25048;49.590;11.026;2022-09-14T04:02:38;16.10;99.90
29281;DHT22;25048;49.590;11.026;2022-09-14T04:05:06;16.00;99.90
29281;DHT22;25048;49.590;11.026;2022-09-14T04:07:34;16.00;99.90
29281;DHT22;25048;49.590;11.026;2022-09-14T04:10:03;16.00;99.90
29281;DHT22;25048;49.590;11.026;2022-09-14T04:12:35;16.00;99.90
29281;DHT22;25048;49.590;11.026;2022-09-14T04:15:04;16.00;99.90
29281;DHT22;25048;49.590;11.026;2022-09-14T04:17:32;16.00;99.90
29281;DHT22;25048;49.590;11.026;2022-09-14T04:19:59;16.00;99.90
29281;DHT22;25048;49.590;11.026;2022-09-14T04:22:27;16.00;99.90
29281;DHT22;25048;49.590;11.026;2022-09-14T04:24:54;15.90;99.90
29281;DHT22;25048;49.590;11.026;2022-09-14T04:27:22;15.90;99.90
29281;DHT22;25048;49.590;11.026;2022-09-14T04:29:50;15.90;99.90
29281;DHT22;25048;49.590;11.026;2022-09-14T04:32:17;15.90;99.90
29281;DHT22;25048;49.590;11.026;2022-09-14T04:34:45;15.90;99.90
29281;DHT22;25048;49.590;11.026;2022-09-14T04:37:12;15.80;99.90
29281;DHT22;25048;49.590;11.026;2022-09-14T04:39:40;15.80;99.90
29281;DHT22;25048;49.590;11.026;2022-09-14T04:42:08;15.80;99.90
29281;DHT22;25048;49.590;11.026;2022-09-14T04:44:35;15.80;99.90
29281;DHT22;25048;49.590;11.026;2022-09-14T04:47:02;15.80;99.90
29281;DHT22;25048;49.590;11.026;2022-09-14T04:49:30;15.80;99.90
29281;DHT22;25048;49.590;11.026;2022-09-14T04:51:58;15.80;99.90
29281;DHT22;25048;49.590;11.026;2022-09-14T04:54:25;15.80;99.90
29281;DHT22;25048;49.590;11.026;2022-09-14T04:56:53;15.80;99.90
29281;DHT22;25048;49.590;11.026;2022-09-14T04:59:20;15.80;99.90
29281;DHT22;25048;49.590;11.026;2022-09-14T05:01:48;15.80;99.90
29281;DHT22;25048;49.590;11.026;2022-09-14T05:04:15;15.80;99.90
29281;DHT22;25048;49.590;11.026;2022-09-14T05:06:43;15.80;99.90
29281;DHT22;25048;49.590;11.026;2022-09-14T05:09:13;15.80;99.90
29281;DHT22;25048;49.590;11.026;2022-09-14T05:11:41;15.80;99.90
29281;DHT22;25048;49.590;11.026;2022-09-14T05:14:11;15.80;99.90
29281;DHT22;25048;49.590;11.026;2022-09-14T05:16:39;15.80;99.90
29281;DHT22;25048;49.590;11.026;2022-09-14T05:19:10;15.80;99.90
29281;DHT22;25048;49.590;11.026;2022-09-14T05:21:37;15.80;99.90
29281;DHT22;25048;49.590;11.026;2022-09-14T05:24:10;15.80;99.90
29281;DHT22;25048;49.590;11.026;2022-09-14T05:26:37;15.80;99.90
29281;DHT22;25048;49.590;11.026;2022-09-14T05:29:05;15.80;99.90
29281;DHT22;25048;49.590;11.026;2022-09-14T05:31:33;15.80;99.90
29281;DHT22;25048;49.590;11.026;2022-09-14T05:34:00;15.80;99.90
29281;DHT22;25048;49.590;11.026;2022-09-14T05:36:27;15.80;99.90
29281;DHT22;25048;49.590;11.026;2022-09-14T05:38:55;15.80;99.90
29281;DHT22;25048;49.590;11.026;2022-09-14T05:41:26;15.80;99.90
29281;DHT22;25048;49.590;11.026;2022-09-14T05:43:53;15.80;99.90
29281;DHT22;25048;49.590;11.026;2022-09-14T05:46:21;15.80;99.90
29281;DHT22;25048;49.590;11.026;2022-09-14T05:48:49;15.80;99.90
29281;DHT22;25048;49.590;11.026;2022-09-14T05:51:19;15.80;99.90
29281;DHT22;25048;49.590;11.026;2022-09-14T05:53:48;15.80;99.90
29281;DHT22;25048;49.590;11.026;2022-09-14T05:56:17;15.80;99.90
29281;DHT22;25048;49.590;11.026;2022-09-14T05:58:46;15.80;99.90
29281;DHT22;25048;49.590;11.026;2022-09-14T06:03:44;15.80;99.90
29281;DHT22;25048;49.590;11.026;2022-09-14T06:06:14;15.80;99.90
29281;DHT22;25048;49.590;11.026;2022-09-14T06:08:43;15.80;99.90
29281;DHT22;25048;49.590;11.026;2022-09-14T06:11:13;15.80;99.90
29281;DHT22;25048;49.590;11.026;2022-09-14T06:13:42;15.80;99.90
29281;DHT22;25048;49.590;11.026;2022-09-14T06:16:12;15.80;99.90
29281;DHT22;25048;49.590;11.026;2022-09-14T06:18:41;15.80;99.90
29281;DHT22;25048;49.590;11.026;2022-09-14T06:21:10;15.80;99.90
29281;DHT22;25048;49.590;11.026;2022-09-14T06:23:40;15.80;99.90
29281;DHT22;25048;49.590;11.026;2022-09-14T06:26:08;15.90;99.90
29281;DHT22;25048;49.590;11.026;2022-09-14T06:28:36;15.90;99.90
29281;DHT22;25048;49.590;11.026;2022-09-14T06:31:04;15.90;99.90
29281;DHT22;25048;49.590;11.026;2022-09-14T06:33:33;15.90;99.90
29281;DHT22;25048;49.590;11.026;2022-09-14T06:36:06;15.90;99.90
29281;DHT22;25048;49.590;11.026;2022-09-14T06:38:35;15.90;99.90
29281;DHT22;25048;49.590;11.026;2022-09-14T06:41:04;16.00;99.90
29281;DHT22;25048;49.590;11.026;2022-09-14T06:43:35;16.00;99.90
29281;DHT22;25048;49.590;11.026;2022-09-14T06:46:22;16.00;99.90
29281;DHT22;25048;49.590;11.026;2022-09-14T06:48:58;16.00;99.90
29281;DHT22;25048;49.590;11.026;2022-09-14T06:51:29;16.10;99.90
29281;DHT22;25048;49.590;11.026;2022-09-14T06:53:55;16.10;99.90
29281;DHT22;25048;49.590;11.026;2022-09-14T06:56:30;16.10;99.90
29281;DHT22;25048;49.590;11.026;2022-09-14T06:58:54;16.10;99.90
29281;DHT22;25048;49.590;11.026;2022-09-14T07:01:22;16.10;99.90
29281;DHT22;25048;49.590;11.026;2022-09-14T07:03:51;16.20;99.90
29281;DHT22;25048;49.590;11.026;2022-09-14T07:06:27;16.20;99.90
29281;DHT22;25048;49.590;11.026;2022-09-14T07:08:55;16.30;99.90
29281;DHT22;25048;49.590;11.026;2022-09-14T07:11:25;16.30;99.90
29281;DHT22;25048;49.590;11.026;2022-09-14T07:13:54;16.30;99.90
29281;DHT22;25048;49.590;11.026;2022-09-14T07:16:24;16.30;99.90
29281;DHT22;25048;49.590;11.026;2022-09-14T07:18:55;16.30;99.90
29281;DHT22;25048;49.590;11.026;2022-09-14T07:21:23;16.30;99.90
29281;DHT22;25048;49.590;11.026;2022-09-14T07:23:51;16.30;99.90
29281;DHT22;25048;49.590;11.026;2022-09-14T07:26:24;16.30;99.90
29281;DHT22;25048;49.590;11.026;2022-09-14T07:28:55;16.40;99.90
29281;DHT22;25048;49.590;11.026;2022-09-14T07:31:28;16.40;99.90
29281;DHT22;25048;49.590;11.026;2022-09-14T07:33:58;16.40;99.90
29281;DHT22;25048;49.590;11.026;2022-09-14T07:36:27;16.40;99.90
29281;DHT22;25048;49.590;11.026;2022-09-14T07:38:56;16.40;99.90
29281;DHT22;25048;49.590;11.026;2022-09-14T07:41:26;16.50;99.90
29281;DHT22;25048;49.590;11.026;2022-09-14T07:43:57;16.50;99.90
29281;DHT22;25048;49.590;11.026;2022-09-14T07:46:27;16.50;99.90
29281;DHT22;25048;49.590;11.026;2022-09-14T07:48:57;16.50;99.90
29281;DHT22;25048;49.590;11.026;2022-09-14T07:51:25;16.60;99.90
29281;DHT22;25048;49.590;11.026;2022-09-14T07:53:54;16.60;99.90
29281;DHT22;25048;49.590;11.026;2022-09-14T07:56:22;16.60;99.90
29281;DHT22;25048;49.590;11.026;2022-09-14T07:58:55;16.60;99.90
29281;DHT22;25048;49.590;11.026;2022-09-14T08:01:24;16.60;99.90
29281;DHT22;25048;49.590;11.026;2022-09-14T08:03:52;16.60;99.90
29281;DHT22;25048;49.590;11.026;2022-09-14T08:06:22;16.70;99.90
29281;DHT22;25048;49.590;11.026;2022-09-14T08:08:51;16.80;99.90
29281;DHT22;25048;49.590;11.026;2022-09-14T08:11:29;16.80;99.90
29281;DHT22;25048;49.590;11.026;2022-09-14T08:13:58;16.90;99.90
29281;DHT22;25048;49.590;11.026;2022-09-14T08:16:27;16.90;99.90
29281;DHT22;25048;49.590;11.026;2022-09-14T08:18:57;16.80;99.90
29281;DHT22;25048;49.590;11.026;2022-09-14T08:21:26;16.80;99.90
29281;DHT22;25048;49.590;11.026;2022-09-14T08:23:54;16.90;99.90
29281;DHT22;25048;49.590;11.026;2022-09-14T08:26:25;16.90;99.90
29281;DHT22;25048;49.590;11.026;2022-09-14T08:28:54;16.90;99.90
29281;DHT22;25048;49.590;11.026;2022-09-14T08:31:23;16.90;99.90
29281;DHT22;25048;49.590;11.026;2022-09-14T08:33:58;16.90;99.90
29281;DHT22;25048;49.590;11.026;2022-09-14T08:36:23;16.90;99.90
29281;DHT22;25048;49.590;11.026;2022-09-14T08:38:51;17.00;99.90
29281;DHT22;25048;49.590;11.026;2022-09-14T08:41:27;17.10;99.90
29281;DHT22;25048;49.590;11.026;2022-09-14T08:44:01;17.20;99.90
29281;DHT22;25048;49.590;11.026;2022-09-14T08:46:33;17.20;99.90
29281;DHT22;25048;49.590;11.026;2022-09-14T08:49:06;17.20;99.90
29281;DHT22;25048;49.590;11.026;2022-09-14T08:51:32;17.30;99.90
29281;DHT22;25048;49.590;11.026;2022-09-14T08:53:59;17.30;99.90
29281;DHT22;25048;49.590;11.026;2022-09-14T08:56:33;17.40;99.90
29281;DHT22;25048;49.590;11.026;2022-09-14T08:59:27;17.40;99.90
29281;DHT22;25048;49.590;11.026;2022-09-14T09:09:55;17.60;99.90
29281;DHT22;25048;49.590;11.026;2022-09-14T09:12:38;17.60;99.90
29281;DHT22;25048;49.590;11.026;2022-09-14T09:15:34;17.60;99.90
29281;DHT22;25048;49.590;11.026;2022-09-14T09:18:10;17.60;99.90
29281;DHT22;25048;49.590;11.026;2022-09-14T09:20:45;17.70;99.90
29281;DHT22;25048;49.590;11.026;2022-09-14T09:23:19;17.80;99.90
29281;DHT22;25048;49.590;11.026;2022-09-14T09:28:29;17.90;99.90
29281;DHT22;25048;49.590;11.026;2022-09-14T09:31:02;18.00;99.90
29281;DHT22;25048;49.590;11.026;2022-09-14T09:33:30;18.10;99.90
29281;DHT22;25048;49.590;11.026;2022-09-14T09:35:58;18.10;99.90
29281;DHT22;25048;49.590;11.026;2022-09-14T09:38:28;18.10;99.90
29281;DHT22;25048;49.590;11.026;2022-09-14T09:41:09;18.10;99.90
29281;DHT22;25048;49.590;11.026;2022-09-14T09:43:35;18.20;99.90
29281;DHT22;25048;49.590;11.026;2022-09-14T09:46:06;18.20;99.90
29281;DHT22;25048;49.590;11.026;2022-09-14T09:48:44;18.20;99.90
29281;DHT22;25048;49.590;11.026;2022-09-14T09:51:14;18.20;99.90
29281;DHT22;25048;49.590;11.026;2022-09-14T09:53:54;18.20;99.90
29281;DHT22;25048;49.590;11.026;2022-09-14T09:56:30;18.20;99.90
29281;DHT22;25048;49.590;11.026;2022-09-14T09:58:57;18.20;99.90
29281;DHT22;25048;49.590;11.026;2022-09-14T10:01:33;18.10;99.90
29281;DHT22;25048;49.590;11.026;2022-09-14T10:06:42;18.10;99.90
29281;DHT22;25048;49.590;11.026;2022-09-14T10:09:19;18.10;99.90
29281;DHT22;25048;49.590;11.026;2022-09-14T10:11:54;18.10;99.90
29281;DHT22;25048;49.590;11.026;2022-09-14T10:14:22;18.10;99.90
29281;DHT22;25048;49.590;11.026;2022-09-14T10:16:50;18.10;99.90
29281;DHT22;25048;49.590;11.026;2022-09-14T10:19:22;18.10;99.90
29281;DHT22;25048;49.590;11.026;2022-09-14T10:24:35;18.20;99.90
29281;DHT22;25048;49.590;11.026;2022-09-14T10:29:52;18.30;99.90
29281;DHT22;25048;49.590;11.026;2022-09-14T10:32:22;18.40;99.90
29281;DHT22;25048;49.590;11.026;2022-09-14T10:34:51;18.50;99.90
29281;DHT22;25048;49.590;11.026;2022-09-14T10:40:13;18.60;99.90
29281;DHT22;25048;49.590;11.026;2022-09-14T10:42:46;18.70;99.90
29281;DHT22;25048;49.590;11.026;2022-09-14T10:51:24;19.00;99.90
29281;DHT22;25048;49.590;11.026;2022-09-14T10:53:58;19.20;99.90
29281;DHT22;25048;49.590;11.026;2022-09-14T10:56:27;19.30;99.90
29281;DHT22;25048;49.590;11.026;2022-09-14T10:59:03;19.40;99.90
29281;DHT22;25048;49.590;11.026;2022-09-14T11:01:43;19.60;99.90
29281;DHT22;25048;49.590;11.026;2022-09-14T11:07:11;19.80;99.90
29281;DHT22;25048;49.590;11.026;2022-09-14T11:09:48;19.80;99.90
29281;DHT22;25048;49.590;11.026;2022-09-14T11:12:24;19.80;99.90
29281;DHT22;25048;49.590;11.026;2022-09-14T11:15:13;19.80;99.90
29281;DHT22;25048;49.590;11.026;2022-09-14T11:20:37;19.90;99.90
29281;DHT22;25048;49.590;11.026;2022-09-14T11:23:31;19.90;99.90
29281;DHT22;25048;49.590;11.026;2022-09-14T11:25:56;19.90;99.90
29281;DHT22;25048;49.590;11.026;2022-09-14T11:28:33;19.90;99.90
29281;DHT22;25048;49.590;11.026;2022-09-14T11:31:08;19.90;99.90
29281;DHT22;25048;49.590;11.026;2022-09-14T11:33:41;19.90;99.90
29281;DHT22;25048;49.590;11.026;2022-09-14T11:36:15;19.90;99.90
29281;DHT22;25048;49.590;11.026;2022-09-14T11:38:55;19.90;99.90
29281;DHT22;25048;49.590;11.026;2022-09-14T11:44:28;19.90;99.90
29281;DHT22;25048;49.590;11.026;2022-09-14T11:46:45;19.90;99.90
29281;DHT22;25048;49.590;11.026;2022-09-14T11:49:26;19.90;99.90
29281;DHT22;25048;49.590;11.026;2022-09-14T11:52:03;19.90;99.90
29281;DHT22;25048;49.590;11.026;2022-09-14T11:54:27;19.90;99.90
29281;DHT22;25048;49.590;11.026;2022-09-14T11:56:57;19.90;99.90
29281;DHT22;25048;49.590;11.026;2022-09-14T12:12:46;19.80;99.90
29281;DHT22;25048;49.590;11.026;2022-09-14T12:15:17;19.80;99.90
29281;DHT22;25048;49.590;11.026;2022-09-14T12:17:45;19.80;99.90
29281;DHT22;25048;49.590;11.026;2022-09-14T12:23:28;19.80;99.90
29281;DHT22;25048;49.590;11.026;2022-09-14T12:25:36;19.90;99.90
29281;DHT22;25048;49.590;11.026;2022-09-14T12:48:54;21.20;99.90
29281;DHT22;25048;49.590;11.026;2022-09-14T13:00:18;21.10;99.90
29281;DHT22;25048;49.590;11.026;2022-09-14T13:04:54;21.90;99.90
29281;DHT22;25048;49.590;11.026;2022-09-14T13:07:19;22.30;99.90
29281;DHT22;25048;49.590;11.026;2022-09-14T13:09:50;22.70;99.90
29281;DHT22;25048;49.590;11.026;2022-09-14T13:12:42;23.10;99.90
29281;DHT22;25048;49.590;11.026;2022-09-14T13:14:55;23.30;99.90
29281;DHT22;25048;49.590;11.026;2022-09-14T13:17:24;23.40;99.90
29281;DHT22;25048;49.590;11.026;2022-09-14T13:19:57;23.30;99.90
29281;DHT22;25048;49.590;11.026;2022-09-14T13:22:27;23.30;99.90
29281;DHT22;25048;49.590;11.026;2022-09-14T13:25:00;23.20;99.90
29281;DHT22;25048;49.590;11.026;2022-09-14T13:27:34;22.90;99.90
29281;DHT22;25048;49.590;11.026;2022-09-14T13:32:30;22.60;99.90
29281;DHT22;25048;49.590;11.026;2022-09-14T13:35:02;22.50;99.90
29281;DHT22;25048;49.590;11.026;2022-09-14T13:37:30;22.40;99.90
29281;DHT22;25048;49.590;11.026;2022-09-14T13:39:59;22.40;99.90
29281;DHT22;25048;49.590;11.026;2022-09-14T13:42:26;22.30;99.90
29281;DHT22;25048;49.590;11.026;2022-09-14T13:44:54;22.20;99.90
29281;DHT22;25048;49.590;11.026;2022-09-14T13:47:23;22.10;99.90
29281;DHT22;25048;49.590;11.026;2022-09-14T13:49:52;22.10;99.90
29281;DHT22;25048;49.590;11.026;2022-09-14T13:52:27;22.00;99.90
29281;DHT22;25048;49.590;11.026;2022-09-14T14:03:24;22.00;99.90
29281;DHT22;25048;49.590;11.026;2022-09-14T14:05:51;21.90;99.90
29281;DHT22;25048;49.590;11.026;2022-09-14T14:08:28;21.80;99.90
29281;DHT22;25048;49.590;11.026;2022-09-14T14:10:57;21.70;99.90
29281;DHT22;25048;49.590;11.026;2022-09-14T14:13:28;21.60;99.90
29281;DHT22;25048;49.590;11.026;2022-09-14T14:16:14;21.50;99.90
29281;DHT22;25048;49.590;11.026;2022-09-14T14:18:50;21.40;99.90
29281;DHT22;25048;49.590;11.026;2022-09-14T14:24:39;21.10;99.90
29281;DHT22;25048;49.590;11.026;2022-09-14T14:26:26;21.00;99.90
29281;DHT22;25048;49.590;11.026;2022-09-14T14:28:54;20.90;99.90
29281;DHT22;25048;49.590;11.026;2022-09-14T14:31:23;20.80;99.90
29281;DHT22;25048;49.590;11.026;2022-09-14T14:33:52;20.70;99.90
29281;DHT22;25048;49.590;11.026;2022-09-14T14:36:20;20.70;99.90
29281;DHT22;25048;49.590;11.026;2022-09-14T14:38:48;20.60;99.90
29281;DHT22;25048;49.590;11.026;2022-09-14T14:41:18;20.50;99.90
29281;DHT22;25048;49.590;11.026;2022-09-14T14:43:46;20.50;99.90
29281;DHT22;25048;49.590;11.026;2022-09-14T14:46:16;20.40;99.90
29281;DHT22;25048;49.590;11.026;2022-09-14T14:48:44;20.30;99.90
29281;DHT22;25048;49.590;11.026;2022-09-14T14:51:13;20.20;99.90
29281;DHT22;25048;49.590;11.026;2022-09-14T14:53:41;20.10;99.90
29281;DHT22;25048;49.590;11.026;2022-09-14T14:56:12;20.10;99.90
29281;DHT22;25048;49.590;11.026;2022-09-14T14:58:44;20.00;99.90
29281;DHT22;25048;49.590;11.026;2022-09-14T15:01:12;20.00;99.90
29281;DHT22;25048;49.590;11.026;2022-09-14T15:03:41;19.90;99.90
29281;DHT22;25048;49.590;11.026;2022-09-14T15:06:20;19.80;99.90
29281;DHT22;25048;49.590;11.026;2022-09-14T15:08:53;19.70;99.90
29281;DHT22;25048;49.590;11.026;2022-09-14T15:11:21;19.50;99.90
29281;DHT22;25048;49.590;11.026;2022-09-14T15:13:49;19.30;99.90
29281;DHT22;25048;49.590;11.026;2022-09-14T15:16:17;19.20;99.90
29281;DHT22;25048;49.590;11.026;2022-09-14T15:18:44;19.10;99.90
29281;DHT22;25048;49.590;11.026;2022-09-14T15:21:12;19.00;99.90
29281;DHT22;25048;49.590;11.026;2022-09-14T15:23:39;18.90;99.90
29281;DHT22;25048;49.590;11.026;2022-09-14T15:26:07;18.80;99.90
29281;DHT22;25048;49.590;11.026;2022-09-14T15:28:35;18.80;99.90
29281;DHT22;25048;49.590;11.026;2022-09-14T15:31:04;18.70;99.90
29281;DHT22;25048;49.590;11.026;2022-09-14T15:33:32;18.60;99.90
29281;DHT22;25048;49.590;11.026;2022-09-14T15:36:00;18.60;99.90
29281;DHT22;25048;49.590;11.026;2022-09-14T15:38:28;18.50;99.90
29281;DHT22;25048;49.590;11.026;2022-09-14T15:40:56;18.50;99.90
29281;DHT22;25048;49.590;11.026;2022-09-14T15:43:23;18.50;99.90
29281;DHT22;25048;49.590;11.026;2022-09-14T15:45:51;18.40;99.90
29281;DHT22;25048;49.590;11.026;2022-09-14T15:48:18;18.40;99.90
29281;DHT22;25048;49.590;11.026;2022-09-14T15:50:47;18.40;99.90
29281;DHT22;25048;49.590;11.026;2022-09-14T15:53:15;18.30;99.90
29281;DHT22;25048;49.590;11.026;2022-09-14T15:55:44;18.30;99.90
29281;DHT22;25048;49.590;11.026;2022-09-14T15:58:12;18.40;99.90
29281;DHT22;25048;49.590;11.026;2022-09-14T16:00:43;18.40;99.90
29281;DHT22;25048;49.590;11.026;2022-09-14T16:03:10;18.30;99.90
29281;DHT22;25048;49.590;11.026;2022-09-14T16:05:38;18.30;99.90
29281;DHT22;25048;49.590;11.026;2022-09-14T16:08:06;18.30;99.90
29281;DHT22;25048;49.590;11.026;2022-09-14T16:10:34;18.30;99.90
29281;DHT22;25048;49.590;11.026;2022-09-14T16:13:01;18.30;99.90
29281;DHT22;25048;49.590;11.026;2022-09-14T16:15:29;18.30;99.90
29281;DHT22;25048;49.590;11.026;2022-09-14T16:17:56;18.30;99.90
29281;DHT22;25048;49.590;11.026;2022-09-14T16:20:24;18.30;99.90
29281;DHT22;25048;49.590;11.026;2022-09-14T16:22:51;18.30;99.90
29281;DHT22;25048;49.590;11.026;2022-09-14T16:25:19;18.30;99.90
29281;DHT22;25048;49.590;11.026;2022-09-14T16:27:46;18.30;99.90
29281;DHT22;25048;49.590;11.026;2022-09-14T16:30:14;18.30;99.90
29281;DHT22;25048;49.590;11.026;2022-09-14T16:32:42;18.30;99.90
29281;DHT22;25048;49.590;11.026;2022-09-14T16:35:10;18.30;99.90
29281;DHT22;25048;49.590;11.026;2022-09-14T16:37:37;18.30;99.90
29281;DHT22;25048;49.590;11.026;2022-09-14T16:40:05;18.20;99.90
29281;DHT22;25048;49.590;11.026;2022-09-14T16:42:33;18.20;99.90
29281;DHT22;25048;49.590;11.026;2022-09-14T16:45:00;18.10;99.90
29281;DHT22;25048;49.590;11.026;2022-09-14T16:47:28;18.10;99.90
29281;DHT22;25048;49.590;11.026;2022-09-14T16:49:56;18.10;99.90
29281;DHT22;25048;49.590;11.026;2022-09-14T16:52:23;18.10;99.90
29281;DHT22;25048;49.590;11.026;2022-09-14T16:54:51;18.00;99.90
29281;DHT22;25048;49.590;11.026;2022-09-14T16:57:18;18.00;99.90
29281;DHT22;25048;49.590;11.026;2022-09-14T16:59:46;18.00;99.90
29281;DHT22;25048;49.590;11.026;2022-09-14T17:02:14;18.00;99.90
29281;DHT22;25048;49.590;11.026;2022-09-14T17:04:42;17.90;99.90
29281;DHT22;25048;49.590;11.026;2022-09-14T17:07:10;17.90;99.90
29281;DHT22;25048;49.590;11.026;2022-09-14T17:09:37;17.80;99.90
29281;DHT22;25048;49.590;11.026;2022-09-14T17:12:06;17.80;99.90
29281;DHT22;25048;49.590;11.026;2022-09-14T17:14:34;17.80;99.90
29281;DHT22;25048;49.590;11.026;2022-09-14T17:17:02;17.80;99.90
29281;DHT22;25048;49.590;11.026;2022-09-14T17:19:30;17.80;99.90
29281;DHT22;25048;49.590;11.026;2022-09-14T17:21:59;17.70;99.90
29281;DHT22;25048;49.590;11.026;2022-09-14T17:24:28;17.70;99.90
29281;DHT22;25048;49.590;11.026;2022-09-14T17:26:55;17.70;99.90
29281;DHT22;25048;49.590;11.026;2022-09-14T17:29:23;17.70;99.90
29281;DHT22;25048;49.590;11.026;2022-09-14T17:31:51;17.60;99.90
29281;DHT22;25048;49.590;11.026;2022-09-14T17:34:20;17.60;99.90
29281;DHT22;25048;49.590;11.026;2022-09-14T17:36:47;17.60;99.90
29281;DHT22;25048;49.590;11.026;2022-09-14T17:39:15;17.60;99.90
29281;DHT22;25048;49.590;11.026;2022-09-14T17:41:43;17.60;99.90
29281;DHT22;25048;49.590;11.026;2022-09-14T17:44:12;17.60;99.90